createdAt,value
2022-08-28T00:01:23.602Z,99635.03
2022-08-28T00:03:50.280Z,99629.59
2022-08-28T00:06:16.898Z,99628.09
2022-08-28T00:08:43.580Z,99620.03
2022-08-28T00:11:10.213Z,99619.53
2022-08-28T00:13:36.859Z,99624.78
2022-08-28T00:16:05.446Z,99632.69
2022-08-28T00:18:32.282Z,99630.66
2022-08-28T00:20:59.471Z,99629.03
2022-08-28T00:23:42.388Z,99622.75
2022-08-28T00:26:10.865Z,99617.09
2022-08-28T00:28:37.667Z,99628.72
2022-08-28T00:31:04.379Z,99638.34
2022-08-28T00:33:33.658Z,99636.66
2022-08-28T00:36:01.847Z,99627.84
2022-08-28T00:38:29.383Z,99623.56
2022-08-28T00:40:59.342Z,99632.06
2022-08-28T00:43:32.156Z,99644.97
2022-08-28T00:45:58.971Z,99638.81
2022-08-28T00:48:25.581Z,99630.59
2022-08-28T00:50:52.237Z,99641.56
2022-08-28T00:53:20.164Z,99654.72
2022-08-28T00:55:47.256Z,99656.94
2022-08-28T00:58:14.642Z,99661.56
2022-08-28T01:00:41.428Z,99663.16
2022-08-28T01:03:08.399Z,99666.78
2022-08-28T01:05:36.460Z,99669.41
2022-08-28T01:08:04.612Z,99650.72
2022-08-28T01:10:34.495Z,99644.63
2022-08-28T01:13:02.227Z,99639.81
2022-08-28T01:15:34.420Z,99651.59
2022-08-28T01:18:08.409Z,99659.19
2022-08-28T01:20:38.794Z,99646.53
2022-08-28T01:23:25.781Z,99643.97
2022-08-28T01:25:52.629Z,99641.03
2022-08-28T01:28:19.592Z,99633.56
2022-08-28T01:30:48.253Z,99637.97
2022-08-28T01:33:15.776Z,99633.88
2022-08-28T01:35:45.044Z,99652.09
2022-08-28T01:38:12.505Z,99648.50
2022-08-28T01:40:49.079Z,99658.22
2022-08-28T01:43:19.389Z,99659.44
2022-08-28T01:45:52.222Z,99654.28
2022-08-28T01:48:20.585Z,99663.91
2022-08-28T01:50:47.507Z,99656.75
2022-08-28T01:53:20.627Z,99658.81
2022-08-28T01:55:53.270Z,99676.34
2022-08-28T01:58:20.360Z,99669.63
2022-08-28T02:00:47.264Z,99676.94
2022-08-28T02:03:13.956Z,99668.91
2022-08-28T02:05:41.191Z,99662.13
2022-08-28T02:08:08.625Z,99659.91
2022-08-28T02:10:38.058Z,99657.00
2022-08-28T02:13:07.442Z,99645.53
2022-08-28T02:15:36.761Z,99649.91
2022-08-28T02:18:04.236Z,99644.47
2022-08-28T02:20:31.000Z,99636.53
2022-08-28T02:22:58.380Z,99626.22
2022-08-28T02:25:26.656Z,99615.63
2022-08-28T02:27:54.203Z,99613.09
2022-08-28T02:30:21.046Z,99589.38
2022-08-28T02:32:47.831Z,99600.06
2022-08-28T02:35:16.786Z,99632.31
2022-08-28T02:37:43.489Z,99655.16
2022-08-28T02:40:11.897Z,99659.75
2022-08-28T02:42:38.561Z,99653.31
2022-08-28T02:45:05.888Z,99640.69
2022-08-28T02:47:32.523Z,99636.78
2022-08-28T02:50:00.445Z,99634.84
2022-08-28T02:52:27.081Z,99625.16
2022-08-28T02:54:53.697Z,99631.69
2022-08-28T02:57:20.391Z,99622.47
2022-08-28T02:59:47.013Z,99622.22
2022-08-28T03:02:13.779Z,99626.81
2022-08-28T03:04:40.424Z,99629.84
2022-08-28T03:07:07.111Z,99628.03
2022-08-28T03:09:33.789Z,99623.19
2022-08-28T03:12:00.419Z,99630.72
2022-08-28T03:14:27.812Z,99643.34
2022-08-28T03:16:54.655Z,99658.41
2022-08-28T03:19:21.333Z,99676.19
2022-08-28T03:21:47.945Z,99680.72
2022-08-28T03:24:19.279Z,99668.97
2022-08-28T03:26:46.654Z,99657.22
2022-08-28T03:29:13.932Z,99662.94
2022-08-28T03:31:40.562Z,99673.72
2022-08-28T03:34:07.231Z,99671.06
2022-08-28T03:36:34.139Z,99672.38
2022-08-28T03:39:04.019Z,99673.13
2022-08-28T03:41:31.591Z,99665.38
2022-08-28T03:44:00.030Z,99668.78
2022-08-28T03:46:28.792Z,99659.41
2022-08-28T03:48:56.043Z,99666.06
2022-08-28T03:51:29.764Z,99663.13
2022-08-28T03:53:58.456Z,99663.81
2022-08-28T03:56:27.642Z,99658.88
2022-08-28T03:58:57.132Z,99661.13
2022-08-28T04:01:24.948Z,99668.41
2022-08-28T04:03:51.871Z,99659.44
2022-08-28T04:06:18.979Z,99669.97
2022-08-28T04:08:45.754Z,99675.41
2022-08-28T04:11:12.401Z,99678.94
2022-08-28T04:13:39.088Z,99667.59
2022-08-28T04:16:08.814Z,99672.63
2022-08-28T04:18:35.455Z,99670.47
2022-08-28T04:21:05.571Z,99668.94
2022-08-28T04:23:32.222Z,99669.47
2022-08-28T04:25:58.898Z,99674.19
2022-08-28T04:28:26.189Z,99673.31
2022-08-28T04:30:54.690Z,99673.16
2022-08-28T04:33:26.317Z,99669.91
2022-08-28T04:35:54.016Z,99679.38
2022-08-28T04:38:21.082Z,99678.66
2022-08-28T04:40:48.233Z,99682.88
2022-08-28T04:43:14.910Z,99681.38
2022-08-28T04:45:43.936Z,99673.28
2022-08-28T04:48:13.782Z,99667.44
2022-08-28T04:50:45.570Z,99667.94
2022-08-28T04:53:13.829Z,99671.03
2022-08-28T04:55:53.542Z,99673.81
2022-08-28T04:58:23.736Z,99681.88
2022-08-28T05:00:52.952Z,99692.84
2022-08-28T05:03:20.734Z,99687.59
2022-08-28T05:05:52.616Z,99689.44
2022-08-28T05:08:22.369Z,99690.00
2022-08-28T05:10:49.497Z,99700.56
2022-08-28T05:13:17.644Z,99694.16
2022-08-28T05:15:46.958Z,99706.06
2022-08-28T05:18:15.162Z,99690.22
2022-08-28T05:20:44.975Z,99695.34
2022-08-28T05:23:13.530Z,99701.84
2022-08-28T05:25:44.764Z,99697.94
2022-08-28T05:28:13.803Z,99700.47
2022-08-28T05:30:41.755Z,99704.69
2022-08-28T05:33:09.403Z,99700.72
2022-08-28T05:35:38.465Z,99712.13
2022-08-28T05:38:06.307Z,99721.28
2022-08-28T05:40:34.250Z,99722.13
2022-08-28T05:43:00.920Z,99727.34
2022-08-28T05:45:27.614Z,99735.72
2022-08-28T05:47:54.267Z,99726.38
2022-08-28T05:50:20.894Z,99727.13
2022-08-28T05:52:47.570Z,99727.25
2022-08-28T05:55:14.592Z,99728.97
2022-08-28T05:57:41.993Z,99719.25
2022-08-28T06:00:09.778Z,99727.16
2022-08-28T06:02:36.434Z,99719.03
2022-08-28T06:05:03.218Z,99716.59
2022-08-28T06:07:29.946Z,99716.53
2022-08-28T06:09:57.178Z,99713.69
2022-08-28T06:12:23.783Z,99707.97
2022-08-28T06:14:51.307Z,99708.84
2022-08-28T06:17:17.953Z,99701.38
2022-08-28T06:19:50.434Z,99696.00
2022-08-28T06:22:17.083Z,99700.47
2022-08-28T06:24:43.722Z,99697.09
2022-08-28T06:27:10.359Z,99701.91
2022-08-28T06:29:37.207Z,99708.22
2022-08-28T06:32:04.491Z,99700.66
2022-08-28T06:34:31.214Z,99702.28
2022-08-28T06:36:57.978Z,99703.25
2022-08-28T06:39:24.745Z,99697.81
2022-08-28T06:41:51.872Z,99696.25
2022-08-28T06:44:20.405Z,99702.94
2022-08-28T06:46:49.282Z,99701.63
2022-08-28T06:49:15.981Z,99696.56
2022-08-28T06:51:42.660Z,99695.06
2022-08-28T06:54:09.994Z,99695.88
2022-08-28T06:56:36.704Z,99696.31
2022-08-28T06:59:04.489Z,99703.44
2022-08-28T07:01:34.950Z,99704.44
2022-08-28T07:04:09.473Z,99699.34
2022-08-28T07:06:41.232Z,99711.75
2022-08-28T07:09:10.419Z,99712.06
2022-08-28T07:11:38.464Z,99719.16
2022-08-28T07:14:05.640Z,99721.19
2022-08-28T07:16:37.039Z,99725.50
2022-08-28T07:19:03.943Z,99721.59
2022-08-28T07:21:31.696Z,99730.91
2022-08-28T07:23:58.374Z,99732.75
2022-08-28T07:26:25.622Z,99736.56
2022-08-28T07:29:09.641Z,99737.09
2022-08-28T07:31:43.852Z,99741.34
2022-08-28T07:34:12.234Z,99749.41
2022-08-28T07:36:39.313Z,99738.94
2022-08-28T07:39:07.932Z,99739.28
2022-08-28T07:41:37.027Z,99740.84
2022-08-28T07:44:03.866Z,99744.94
2022-08-28T07:46:30.702Z,99734.00
2022-08-28T07:48:57.436Z,99731.00
2022-08-28T07:51:24.817Z,99735.84
2022-08-28T07:53:52.038Z,99741.19
2022-08-28T07:56:18.995Z,99737.25
2022-08-28T07:58:46.150Z,99740.50
2022-08-28T08:01:12.929Z,99732.13
2022-08-28T08:03:39.717Z,99733.44
2022-08-28T08:06:10.007Z,99739.06
2022-08-28T08:08:36.772Z,99740.03
2022-08-28T08:11:08.201Z,99737.06
2022-08-28T08:13:39.717Z,99742.31
2022-08-28T08:16:14.070Z,99743.97
2022-08-28T08:18:41.755Z,99746.88
2022-08-28T08:21:10.504Z,99746.19
2022-08-28T08:23:37.703Z,99753.50
2022-08-28T08:26:06.734Z,99749.16
2022-08-28T08:28:35.667Z,99751.09
2022-08-28T08:31:04.137Z,99753.19
2022-08-28T08:33:30.880Z,99754.97
2022-08-28T08:35:57.533Z,99758.03
2022-08-28T08:38:24.216Z,99760.69
2022-08-28T08:40:51.175Z,99763.81
2022-08-28T08:43:19.305Z,99766.25
2022-08-28T08:45:47.144Z,99762.97
2022-08-28T08:48:26.814Z,99764.69
2022-08-28T08:50:53.971Z,99770.28
2022-08-28T08:53:38.825Z,99769.75
2022-08-28T08:56:06.370Z,99774.59
2022-08-28T08:58:40.651Z,99770.44
2022-08-28T09:01:31.142Z,99770.63
2022-08-28T09:04:21.470Z,99766.31
2022-08-28T09:06:52.359Z,99772.31
2022-08-28T09:09:33.086Z,99767.06
2022-08-28T09:12:08.751Z,99768.25
2022-08-28T09:14:42.443Z,99772.91
2022-08-28T09:17:12.477Z,99773.28
2022-08-28T09:19:39.188Z,99769.41
2022-08-28T09:22:05.814Z,99771.50
2022-08-28T09:24:34.787Z,99778.16
2022-08-28T09:27:11.061Z,99774.19
2022-08-28T09:29:41.959Z,99774.06
2022-08-28T09:32:31.385Z,99781.03
2022-08-28T09:35:12.536Z,99776.72
2022-08-28T09:37:41.382Z,99780.34
2022-08-28T09:40:26.908Z,99782.81
2022-08-28T09:43:14.295Z,99779.25
2022-08-28T09:45:41.040Z,99790.75
2022-08-28T09:48:23.016Z,99786.59
2022-08-28T09:51:11.005Z,99777.69
2022-08-28T09:53:54.218Z,99782.81
2022-08-28T09:56:40.292Z,99783.97
2022-08-28T09:59:14.888Z,99782.31
2022-08-28T10:01:45.332Z,99781.41
2022-08-28T10:04:29.268Z,99780.75
2022-08-28T10:07:14.836Z,99777.03
2022-08-28T10:09:53.442Z,99779.53
2022-08-28T10:12:26.127Z,99788.22
2022-08-28T10:15:11.434Z,99779.59
2022-08-28T10:17:54.169Z,99774.00
2022-08-28T10:20:45.063Z,99775.00
2022-08-28T10:23:32.076Z,99771.13
2022-08-28T10:26:23.781Z,99777.03
2022-08-28T10:28:59.066Z,99773.84
2022-08-28T10:32:02.582Z,99771.59
2022-08-28T10:34:54.579Z,99772.91
2022-08-28T10:37:36.245Z,99765.47
2022-08-28T10:40:11.080Z,99771.38
2022-08-28T10:42:54.876Z,99767.13
2022-08-28T10:45:26.339Z,99770.75
2022-08-28T10:48:01.368Z,99763.00
2022-08-28T10:50:55.904Z,99765.81
2022-08-28T10:53:38.635Z,99766.44
2022-08-28T10:56:15.130Z,99760.59
2022-08-28T10:58:42.164Z,99757.44
2022-08-28T11:01:13.609Z,99751.34
2022-08-28T11:03:50.888Z,99768.75
2022-08-28T11:06:58.863Z,99759.97
2022-08-28T11:09:36.183Z,99758.94
2022-08-28T11:12:07.073Z,99763.66
2022-08-28T11:14:47.593Z,99757.72
2022-08-28T11:17:24.111Z,99764.00
2022-08-28T11:20:09.876Z,99766.34
2022-08-28T11:22:42.367Z,99763.19
2022-08-28T11:25:26.669Z,99764.50
2022-08-28T11:28:23.518Z,99761.44
2022-08-28T11:31:10.412Z,99756.56
2022-08-28T11:33:46.142Z,99755.41
2022-08-28T11:36:32.645Z,99752.56
2022-08-28T11:39:05.066Z,99749.53
2022-08-28T11:41:59.644Z,99751.59
2022-08-28T11:44:46.685Z,99742.06
2022-08-28T11:47:37.497Z,99750.03
2022-08-28T11:50:21.144Z,99749.81
2022-08-28T11:53:00.018Z,99741.72
2022-08-28T11:56:05.037Z,99745.47
2022-08-28T11:58:45.686Z,99737.69
2022-08-28T12:01:13.831Z,99744.97
2022-08-28T12:04:07.564Z,99749.53
2022-08-28T12:06:47.029Z,99739.16
2022-08-28T12:09:44.274Z,99735.28
2022-08-28T12:12:45.390Z,99734.28
2022-08-28T12:15:33.058Z,99733.97
2022-08-28T12:18:03.674Z,99727.94
2022-08-28T12:20:55.602Z,99722.06
2022-08-28T12:23:37.197Z,99722.63
2022-08-28T12:26:19.055Z,99731.38
2022-08-28T12:28:58.239Z,99729.78
2022-08-28T12:31:42.943Z,99718.78
2022-08-28T12:34:30.455Z,99719.47
2022-08-28T12:37:02.540Z,99717.72
2022-08-28T12:39:31.375Z,99705.09
2022-08-28T12:41:59.519Z,99705.91
2022-08-28T12:44:30.255Z,99710.56
2022-08-28T12:46:58.317Z,99703.44
2022-08-28T12:49:36.983Z,99701.22
2022-08-28T12:52:09.199Z,99702.31
2022-08-28T12:54:35.827Z,99703.84
2022-08-28T12:57:31.816Z,99700.34
2022-08-28T13:00:08.717Z,99689.50
2022-08-28T13:02:35.875Z,99697.41
2022-08-28T13:05:10.058Z,99696.75
2022-08-28T13:07:49.469Z,99690.63
2022-08-28T13:10:24.271Z,99689.75
2022-08-28T13:13:05.381Z,99696.63
2022-08-28T13:16:11.667Z,99687.84
2022-08-28T13:18:45.503Z,99684.69
2022-08-28T13:21:30.819Z,99681.59
2022-08-28T13:24:21.093Z,99687.22
2022-08-28T13:26:49.667Z,99684.50
2022-08-28T13:29:22.997Z,99679.69
2022-08-28T13:32:16.332Z,99684.31
2022-08-28T13:35:07.097Z,99677.78
2022-08-28T13:37:46.917Z,99681.53
2022-08-28T13:40:45.887Z,99671.63
2022-08-28T13:43:07.245Z,99674.28
2022-08-28T13:45:42.861Z,99666.16
2022-08-28T13:48:16.361Z,99669.28
2022-08-28T13:50:47.346Z,99664.31
2022-08-28T13:53:16.649Z,99665.94
2022-08-28T13:55:43.600Z,99662.69
2022-08-28T13:58:10.401Z,99663.59
2022-08-28T14:00:42.110Z,99662.03
2022-08-28T14:03:08.860Z,99662.09
2022-08-28T14:05:35.554Z,99652.88
2022-08-28T14:08:02.316Z,99652.50
2022-08-28T14:10:29.134Z,99654.28
2022-08-28T14:12:55.780Z,99652.41
2022-08-28T14:15:22.449Z,99650.44
2022-08-28T14:17:49.221Z,99639.47
2022-08-28T14:20:15.909Z,99639.25
2022-08-28T14:22:42.561Z,99641.97
2022-08-28T14:25:10.504Z,99653.34
2022-08-28T14:27:37.663Z,99644.78
2022-08-28T14:30:07.044Z,99650.84
2022-08-28T14:32:34.087Z,99655.72
2022-08-28T14:35:01.394Z,99646.72
2022-08-28T14:37:28.092Z,99658.50
2022-08-28T14:39:54.759Z,99651.84
2022-08-28T14:42:21.452Z,99656.75
2022-08-28T14:44:48.142Z,99661.78
2022-08-28T14:47:14.970Z,99656.94
2022-08-28T14:49:41.678Z,99659.03
2022-08-28T14:52:08.537Z,99662.47
2022-08-28T14:54:35.412Z,99659.72
2022-08-28T14:57:02.074Z,99663.53
2022-08-28T14:59:30.720Z,99659.75
2022-08-28T15:01:59.061Z,99666.31
2022-08-28T15:04:28.261Z,99664.91
2022-08-28T15:06:58.126Z,99659.25
2022-08-28T15:09:25.830Z,99654.38
2022-08-28T15:11:53.780Z,99665.47
2022-08-28T15:14:20.750Z,99663.13
2022-08-28T15:16:48.967Z,99661.47
2022-08-28T15:19:18.103Z,99657.94
2022-08-28T15:21:48.145Z,99660.28
2022-08-28T15:24:16.823Z,99665.00
2022-08-28T15:26:43.674Z,99664.38
2022-08-28T15:29:10.327Z,99665.13
2022-08-28T15:31:41.458Z,99665.06
2022-08-28T15:34:17.406Z,99668.09
2022-08-28T15:36:54.617Z,99669.09
2022-08-28T15:39:24.853Z,99668.25
2022-08-28T15:41:51.555Z,99661.31
2022-08-28T15:44:18.194Z,99669.56
2022-08-28T15:46:51.907Z,99667.97
2022-08-28T15:49:19.488Z,99673.41
2022-08-28T15:51:46.422Z,99673.53
2022-08-28T15:54:13.063Z,99677.34
2022-08-28T15:56:39.750Z,99677.13
2022-08-28T15:59:06.394Z,99668.19
2022-08-28T16:01:33.074Z,99670.44
2022-08-28T16:03:59.738Z,99659.94
2022-08-28T16:06:26.378Z,99665.53
2022-08-28T16:08:53.055Z,99669.75
2022-08-28T16:11:21.691Z,99670.78
2022-08-28T16:13:49.321Z,99673.50
2022-08-28T16:16:17.072Z,99668.59
2022-08-28T16:18:44.582Z,99668.44
2022-08-28T16:21:12.399Z,99656.22
2022-08-28T16:23:39.882Z,99668.50
2022-08-28T16:26:07.760Z,99671.09
2022-08-28T16:28:35.427Z,99667.66
2022-08-28T16:31:07.272Z,99672.31
2022-08-28T16:33:35.088Z,99662.31
2022-08-28T16:36:10.740Z,99667.00
2022-08-28T16:38:38.685Z,99676.50
2022-08-28T16:41:10.860Z,99674.03
2022-08-28T16:43:37.604Z,99691.75
2022-08-28T16:46:09.001Z,99685.09
2022-08-28T16:48:35.664Z,99691.25
2022-08-28T16:51:02.309Z,99691.56
2022-08-28T16:53:28.949Z,99688.88
2022-08-28T16:55:55.693Z,99697.63
2022-08-28T16:58:22.289Z,99690.88
2022-08-28T17:00:52.745Z,99694.28
2022-08-28T17:03:26.374Z,99698.09
2022-08-28T17:05:55.415Z,99697.16
2022-08-28T17:08:22.323Z,99711.47
2022-08-28T17:10:51.694Z,99716.63
2022-08-28T17:13:18.366Z,99711.41
2022-08-28T17:15:45.262Z,99713.22
2022-08-28T17:18:12.156Z,99721.75
2022-08-28T17:20:38.907Z,99722.44
2022-08-28T17:23:05.666Z,99739.09
2022-08-28T17:25:32.751Z,99735.06
2022-08-28T17:27:59.962Z,99737.00
2022-08-28T17:30:26.840Z,99740.94
2022-08-28T17:32:53.619Z,99742.03
2022-08-28T17:35:20.791Z,99738.56
2022-08-28T17:37:50.174Z,99743.06
2022-08-28T17:40:17.512Z,99752.03
2022-08-28T17:42:44.233Z,99746.38
2022-08-28T17:45:12.072Z,99757.66
2022-08-28T17:47:38.736Z,99767.13
2022-08-28T17:50:06.129Z,99764.81
2022-08-28T17:52:32.842Z,99767.50
2022-08-28T17:54:59.931Z,99780.69
2022-08-28T17:57:26.930Z,99778.59
2022-08-28T17:59:53.616Z,99784.22
2022-08-28T18:02:20.255Z,99780.44
2022-08-28T18:04:47.006Z,99777.81
2022-08-28T18:07:13.664Z,99765.78
2022-08-28T18:09:40.319Z,99763.63
2022-08-28T18:12:12.673Z,99773.19
2022-08-28T18:14:40.729Z,99766.97
2022-08-28T18:17:09.150Z,99773.47
2022-08-28T18:19:35.974Z,99767.56
2022-08-28T18:22:02.805Z,99772.59
2022-08-28T18:24:31.110Z,99773.13
2022-08-28T18:26:59.007Z,99787.72
2022-08-28T18:29:25.665Z,99792.59
2022-08-28T18:31:52.363Z,99803.13
2022-08-28T18:34:19.056Z,99802.16
2022-08-28T18:36:45.879Z,99800.84
2022-08-28T18:39:13.021Z,99798.31
2022-08-28T18:41:43.837Z,99797.63
2022-08-28T18:44:12.770Z,99792.75
2022-08-28T18:46:39.517Z,99800.44
2022-08-28T18:49:06.192Z,99806.22
2022-08-28T18:51:32.855Z,99809.50
2022-08-28T18:54:00.446Z,99810.22
2022-08-28T18:56:30.897Z,99812.91
2022-08-28T18:58:58.908Z,99814.59
2022-08-28T19:01:25.729Z,99818.59
2022-08-28T19:03:54.090Z,99822.25
2022-08-28T19:06:20.789Z,99815.75
2022-08-28T19:08:47.420Z,99815.19
2022-08-28T19:11:14.480Z,99821.28
2022-08-28T19:13:41.281Z,99813.59
2022-08-28T19:16:16.510Z,99816.16
2022-08-28T19:18:43.306Z,99819.59
2022-08-28T19:21:15.858Z,99819.28
2022-08-28T19:23:55.248Z,99822.19
2022-08-28T19:26:26.193Z,99831.31
2022-08-28T19:28:53.636Z,99835.03
2022-08-28T19:31:20.979Z,99832.75
2022-08-28T19:33:47.644Z,99835.13
2022-08-28T19:36:15.011Z,99837.69
2022-08-28T19:38:42.461Z,99843.22
2022-08-28T19:41:10.801Z,99839.72
2022-08-28T19:43:44.126Z,99840.53
2022-08-28T19:46:19.270Z,99843.38
2022-08-28T19:48:49.925Z,99843.50
2022-08-28T19:51:22.578Z,99852.00
2022-08-28T19:53:57.931Z,99852.72
2022-08-28T19:56:30.523Z,99859.22
2022-08-28T19:58:58.997Z,99862.19
2022-08-28T20:01:30.928Z,99860.19
2022-08-28T20:03:59.351Z,99855.13
2022-08-28T20:06:26.711Z,99860.06
2022-08-28T20:08:53.424Z,99858.22
2022-08-28T20:11:22.324Z,99868.09
2022-08-28T20:13:48.942Z,99868.88
2022-08-28T20:16:15.698Z,99868.84
2022-08-28T20:18:42.331Z,99861.09
2022-08-28T20:21:12.520Z,99868.41
2022-08-28T20:23:39.863Z,99866.69
2022-08-28T20:26:09.232Z,99872.06
2022-08-28T20:28:36.585Z,99885.41
2022-08-28T20:31:17.457Z,99876.38
2022-08-28T20:33:45.563Z,99878.34
2022-08-28T20:36:16.319Z,99875.56
2022-08-28T20:38:48.129Z,99875.28
2022-08-28T20:41:19.317Z,99881.59
2022-08-28T20:43:47.149Z,99875.19
2022-08-28T20:46:15.103Z,99881.44
2022-08-28T20:48:41.765Z,99885.38
2022-08-28T20:51:08.815Z,99890.31
2022-08-28T20:53:37.030Z,99886.25
2022-08-28T20:56:07.965Z,99889.31
2022-08-28T20:58:34.934Z,99883.50
2022-08-28T21:01:02.143Z,99881.75
2022-08-28T21:03:28.831Z,99889.31
2022-08-28T21:05:55.446Z,99880.69
2022-08-28T21:08:23.157Z,99887.34
2022-08-28T21:10:51.937Z,99876.31
2022-08-28T21:13:18.624Z,99876.66
2022-08-28T21:15:45.286Z,99883.75
2022-08-28T21:18:11.895Z,99890.16
2022-08-28T21:20:39.650Z,99891.16
2022-08-28T21:23:06.487Z,99882.72
2022-08-28T21:25:33.200Z,99883.53
2022-08-28T21:27:59.863Z,99882.53
2022-08-28T21:30:30.974Z,99884.88
2022-08-28T21:32:57.750Z,99886.34
2022-08-28T21:35:24.416Z,99890.88
2022-08-28T21:37:51.332Z,99893.28
2022-08-28T21:40:18.721Z,99896.03
2022-08-28T21:42:45.405Z,99892.13
2022-08-28T21:45:12.507Z,99896.53
2022-08-28T21:47:40.360Z,99902.38
2022-08-28T21:50:07.874Z,99904.41
2022-08-28T21:52:34.837Z,99896.97
2022-08-28T21:55:06.995Z,99900.69
2022-08-28T21:57:33.997Z,99895.44
2022-08-28T22:00:01.355Z,99906.53
2022-08-28T22:02:28.266Z,99899.59
2022-08-28T22:04:54.999Z,99909.72
2022-08-28T22:07:21.871Z,99903.25
2022-08-28T22:09:48.504Z,99900.03
2022-08-28T22:12:15.174Z,99902.75
2022-08-28T22:14:41.873Z,99907.25
2022-08-28T22:17:11.778Z,99905.84
2022-08-28T22:19:39.442Z,99900.47
2022-08-28T22:22:06.176Z,99899.91
2022-08-28T22:24:32.817Z,99897.13
2022-08-28T22:26:59.639Z,99905.97
2022-08-28T22:29:26.692Z,99906.06
2022-08-28T22:31:53.430Z,99907.63
2022-08-28T22:34:20.335Z,99900.47
2022-08-28T22:36:47.118Z,99902.13
2022-08-28T22:39:13.859Z,99902.88
2022-08-28T22:41:40.501Z,99902.25
2022-08-28T22:44:07.144Z,99900.19
2022-08-28T22:46:33.872Z,99897.03
2022-08-28T22:49:00.521Z,99898.16
2022-08-28T22:51:27.153Z,99894.72
2022-08-28T22:53:53.832Z,99901.88
2022-08-28T22:56:20.773Z,99901.13
2022-08-28T22:58:47.400Z,99904.16
2022-08-28T23:01:18.823Z,99905.41
2022-08-28T23:03:46.667Z,99903.47
2022-08-28T23:06:13.480Z,99902.09
2022-08-28T23:08:40.417Z,99897.91
2022-08-28T23:11:07.104Z,99908.53
2022-08-28T23:13:33.920Z,99900.66
2022-08-28T23:16:00.789Z,99906.53
2022-08-28T23:18:27.772Z,99912.78
2022-08-28T23:20:54.695Z,99910.88
2022-08-28T23:23:21.415Z,99917.97
2022-08-28T23:25:48.203Z,99912.00
2022-08-28T23:28:14.904Z,99918.66
2022-08-28T23:30:44.079Z,99915.88
2022-08-28T23:33:23.240Z,99923.13
2022-08-28T23:35:51.942Z,99920.81
2022-08-28T23:38:19.292Z,99911.34
2022-08-28T23:40:46.626Z,99918.03
2022-08-28T23:43:13.784Z,99919.56
2022-08-28T23:45:41.311Z,99926.47
2022-08-28T23:48:09.055Z,99927.03
2022-08-28T23:50:36.032Z,99921.41
2022-08-28T23:53:03.993Z,99927.91
2022-08-28T23:55:31.088Z,99923.06
2022-08-28T23:58:00.323Z,99921.69
